Tiempo atmosférico en la estación meteorológica de Arevalo, Ávila (820 m.)



Fecha
DESCASC
Temp. máxima en grados centígrados (hora)
DESCASC
Temp. mínima en grados centígrados (hora)
DESCASC
Temp. media en grados centígrados
DESCASC
Racha de viento máxima en m/sg (hora)
DESCASC
Velocidad máxima media en intervalos de 10 minutos(hora)
DESCASC
Precipitaciones diarias en mm
DESCASC
Precipitaciones de 00:00 a 06:00 en mm
DESCASC
Precipitaciones de 06:00 a 12:00 en mm
DESCASC
Precipitaciones de 12:00 a 18:00 en mm
DESCASC
Precipitaciones de 18:00 a 24:00 en mm
DESCASC
23-06-2019 30.4 (16:30) 12.1 (07:00) 21.3 11.11 (14:50) 5.28 (16:50) 0 0 0 0 0
22-06-2019 30.5 (16:20) 9.4 (07:00) 19.9 8.89 (18:40) 5.28 (18:40) 0 0 0 0 0
21-06-2019 24.7 (18:50) 10.9 (05:00) 17.8 9.72 (00:40) 5.83 (00:40) 0 0 0 0 0
20-06-2019 26.8 (16:50) 15 (00:00) 20.9 9.44 (16:50) 5.28 (17:10) 0.4 0 0 0 0.4
19-06-2019 25 (17:10) 12.9 (00:00) 18.9 -- (--) -- (--) -- -- 0 0 0
18-06-2019 28.1 (14:00) 12.9 (00:00) 20.5 15.56 (18:00) 8.61 (18:00) 0 0 0 0 0
17-06-2019 30.3 (17:50) 8.9 (00:00) 19.6 11.67 (14:20) 6.39 (19:00) 0 0 0 0 0
16-06-2019 29.1 (16:30) 6.2 (00:00) 17.7 8.06 (20:20) 4.72 (20:20) 0 0 0 0 0
15-06-2019 22.9 (18:30) 7 (00:00) 14.9 6.39 (17:10) 4.17 (17:10) 0 0 0 0 0
14-06-2019 22.8 (15:50) 6.4 (00:00) 14.6 12.78 (15:20) 7.5 (17:50) 0 0 0 0 0
13-06-2019 25.6 (16:50) 4.9 (00:00) 15.3 11.67 (18:00) 6.67 (18:00) 0 0 0 0 0
12-06-2019 22.1 (18:00) 2.5 (00:00) 12.3 8.33 (14:30) 4.17 (16:00) 0 0 0 0 0
11-06-2019 19.2 (17:40) 9.5 (00:00) 14.4 10.83 (15:40) 5.83 (20:30) 0 0 0 0 0
10-06-2019 22.3 (18:50) 6.7 (00:00) 14.5 9.44 (17:50) 5 (23:50) 0 0 0 0 0
09-06-2019 23.6 (17:40) 9.7 (00:00) 16.7 9.44 (18:00) 5.83 (21:00) 0 0 0 0 0
08-06-2019 25.8 (18:20) 2.7 (00:00) 14.2 9.44 (16:30) 5.56 (19:30) 0 0 0 0 0
07-06-2019 18.5 (17:10) 6.5 (00:00) 12.5 11.39 (01:00) 7.22 (01:00) 0.8 0.8 0 0 0
06-06-2019 23.2 (17:40) 4.6 (00:00) 13.9 16.11 (18:10) 8.33 (21:10) 1.2 0 0.4 0 0.8
05-06-2019 18.8 (16:00) 7.6 (00:00) 13.2 11.11 (09:20) 6.67 (09:30) 0 0 0 0 0
04-06-2019 24.5 (15:50) 12.4 (00:00) 18.4 12.22 (15:00) 7.22 (18:20) 0 0 0 0 0
03-06-2019 30.9 (16:50) 13.8 (00:00) 22.3 14.72 (17:50) 8.61 (19:10) 0 0 0 0 0
02-06-2019 32.5 (16:00) 14 (00:00) 23.3 10.83 (17:00) 5.28 (17:20) 0 0 0 0 0
01-06-2019 32.6 (17:40) 11.3 (00:00) 21.9 7.22 (16:00) 3.61 (16:30) 0 0 0 0 0
31-05-2019 31.4 (17:20) 9.5 (00:00) 20.4 6.67 (15:10) 3.89 (17:40) 0 0 0 0 0
30-05-2019 29.2 (17:10) 5.7 (00:00) 17.5 7.78 (17:40) 3.61 (17:40) 0 0 0 0 0
29-05-2019 22.9 (17:40) 6.4 (00:00) 14.6 9.17 (14:40) 5.28 (14:40) 0 0 0 0 0
28-05-2019 22.5 (17:10) 7.3 (00:00) 14.9 9.44 (16:20) 5.28 (21:20) 0 0 0 0 0
27-05-2019 25.6 (17:40) 9.5 (00:00) 17.6 8.06 (16:10) 4.44 (18:10) 0 0 0 0 0
26-05-2019 24.6 (18:40) 6.5 (00:00) 15.6 8.89 (16:40) 4.44 (17:30) 0 0 0 0 0
25-05-2019 21.2 (17:30) 5.7 (00:00) 13.5 10.56 (11:00) 5.83 (10:20) 0 0 0 0 0

Gráficas

Temp. máximas Temp. mínimas Temp. medias Precipitaciones Rachas de viento máximas Velocidades máximas media en intervalos de 10 minutos

Datos horarios

Fecha y hora oficial Temperatura (ºC) Velocidad del viento (km/h) Dirección del viento Racha (km/h) Dirección de racha Precipitación (mm) Presión (hPa) Tendencia (hPa) Humedad (%)
2019-06-23 23:00:00 22.1 9 Noroeste 19 Norte 0 -- -- 32
2019-06-23 22:00:00 23.8 14 Noroeste 20 Norte 0 -- -- 29
2019-06-23 21:00:00 26.4 12 Noroeste 28 Oeste 0 -- -- 25
2019-06-23 20:00:00 27.7 14 Sudoeste 29 Sudoeste 0 -- -- 26
2019-06-23 19:00:00 28.5 17 Sudoeste 28 Sudoeste 0 -- -- 23
2019-06-23 18:00:00 29.3 10 Oeste 26 Sudoeste 0 -- -- 24
2019-06-23 17:00:00 29.2 19 Sudoeste 37 Sudoeste 0 -- -- 25
2019-06-23 16:00:00 30.3 17 Sudoeste 33 Sudoeste 0 -- -- 23
2019-06-23 15:00:00 29.1 14 Sur 40 Sur 0 -- -- 26
2019-06-23 14:00:00 28.7 13 Sudoeste 24 Sudoeste 0 -- -- 28
2019-06-23 13:00:00 27.5 6 Sudoeste 18 Sudoeste 0 -- -- 29
2019-06-23 12:00:00 25.2 4 Sudoeste 12 Sudeste 0 -- -- 30
2019-06-23 11:00:00 21.5 7 Sur 13 Este 0 -- -- 36
2019-06-23 10:00:00 19.1 5 Sudeste 9 Este 0 -- -- 44
2019-06-23 09:00:00 16.1 3 Sur 7 Sudoeste 0 -- -- 52
2019-06-23 08:00:00 14 4 Sudeste 10 Oeste 0 -- -- 57
2019-06-23 07:00:00 12.1 3 Sudeste 7 Oeste 0 -- -- 61
2019-06-23 06:00:00 13.1 4 Sur 10 Sur 0 -- -- 57
2019-06-23 05:00:00 13.9 7 Sur 10 Sur 0 -- -- 57
2019-06-23 04:00:00 14.5 5 Sur 9 Sur 0 -- -- 56
2019-06-23 03:00:00 15.7 3 Sudoeste 10 Sur 0 -- -- 49
2019-06-23 02:00:00 17 4 Sudoeste 9 Sur 0 -- -- 46
2019-06-23 01:00:00 18.2 5 Sur 8 Sur 0 -- -- 45
2019-06-23 00:00:00 20 4 Oeste 12 Sur 0 -- -- 41
2019-06-22 23:00:00 22.9 6 Sudoeste 13 Noroeste 0 -- -- 33
2019-06-22 22:00:00 25.4 12 Oeste 23 Oeste 0 -- -- 31
2019-06-22 21:00:00 27.5 13 Oeste 27 Oeste 0 -- -- 28
2019-06-22 20:00:00 28.7 14 Oeste 30 Oeste 0 -- -- 25
2019-06-22 19:00:00 29.4 17 Oeste 32 Noroeste 0 -- -- 26
2019-06-22 18:00:00 30 7 Sur 30 Sur 0 -- -- 26
2019-06-22 17:00:00 29.1 16 Sur 26 Sudoeste 0 -- -- 27
2019-06-22 16:00:00 29.8 8 Sudoeste 29 Sudoeste 0 -- -- 25
2019-06-22 15:00:00 28.4 7 Noroeste 22 Oeste 0 -- -- 28
2019-06-22 14:00:00 28.4 7 Sur 23 Oeste 0 -- -- 28
2019-06-22 13:00:00 26.8 8 Sudoeste 22 Sur 0 -- -- 31
2019-06-22 12:00:00 25.5 10 Sudoeste 21 Sur 0 -- -- 35
2019-06-22 11:00:00 23.9 12 Sur 20 Sur 0 -- -- 41
2019-06-22 10:00:00 21 10 Sudeste 20 Sur 0 -- -- 52
2019-06-22 09:00:00 15.3 9 Sur 13 Sur 0 -- -- 63
2019-06-22 08:00:00 11 5 Sudoeste 10 Sur 0 -- -- 75
2019-06-22 07:00:00 9.4 4 Sur 10 Sur 0 -- -- 80
2019-06-22 06:00:00 10.2 8 Sudeste 14 Sudeste 0 -- -- 77
2019-06-22 05:00:00 11.3 0 Calma 8 Sudoeste 0 -- -- 76
2019-06-22 04:00:00 12.3 3 Sur 9 Sudeste 0 -- -- 72
2019-06-22 03:00:00 12.9 4 Este 8 Este 0 -- -- 70
2019-06-22 02:00:00 14.2 3 Nordeste 12 Este 0 -- -- 65
2019-06-22 01:00:00 15.2 3 Este 18 Este 0 -- -- 61
2019-06-22 00:00:00 16.3 8 Este 14 Este 0 -- -- 56
2019-06-21 23:00:00 18.5 8 Nordeste 16 Nordeste 0 -- -- 48
2019-06-21 22:00:00 20.6 9 Nordeste 17 Nordeste 0 -- -- 43
2019-06-21 21:00:00 22.6 9 Norte 24 Norte 0 -- -- 37
2019-06-21 20:00:00 23.8 12 Norte 27 Norte 0 -- -- 34
2019-06-21 19:00:00 24.6 10 Noroeste 22 Noroeste 0 -- -- 32
2019-06-21 18:00:00 23.2 8 Nordeste 17 Sudeste 0 -- -- 37
2019-06-21 17:00:00 22.4 6 Nordeste 23 Nordeste 0 -- -- 40
2019-06-21 16:00:00 24.5 8 Noroeste 22 Norte 0 -- -- 38
2019-06-21 15:00:00 21.4 8 Este 22 Este 0 -- -- 46
2019-06-21 14:00:00 19.6 9 Nordeste 22 Este 0 -- -- 52
2019-06-21 13:00:00 18.3 8 Nordeste 21 Nordeste 0 -- -- 59
2019-06-21 12:00:00 15.7 10 Nordeste 21 Norte 0 -- -- 70
2019-06-21 11:00:00 13.5 13 Norte 19 Norte 0 -- -- 80
2019-06-21 10:00:00 13.3 11 Norte 17 Noroeste 0 -- -- 81
2019-06-21 09:00:00 12.5 7 Norte 14 Norte 0 -- -- 87
2019-06-21 08:00:00 12.1 6 Norte 12 Norte 0 -- -- 88
2019-06-21 07:00:00 12.2 6 Norte 8 Norte 0 -- -- 88
2019-06-21 06:00:00 12.1 4 Norte 6 Norte 0 -- -- 88
2019-06-21 05:00:00 10.9 4 Noroeste 6 Noroeste 0 -- -- 90
2019-06-21 04:00:00 12.2 2 Norte 5 Este 0 -- -- 86
2019-06-21 03:00:00 12.8 5 Este 23 Nordeste 0 -- -- 85
2019-06-21 02:00:00 13.4 14 Nordeste 30 Nordeste 0 -- -- 84
2019-06-21 01:00:00 14.3 17 Nordeste 35 Norte 0 -- -- 84
2019-06-21 00:00:00 15.6 10 Nordeste 24 Norte 0 -- -- 83
2019-06-20 23:00:00 17.6 8 Norte 18 Norte 0 -- -- 70
2019-06-20 22:00:00 18.4 4 Este 13 Nordeste 0 -- -- 64
2019-06-20 21:00:00 20 8 Norte 18 Noroeste 0 -- -- 60
2019-06-20 20:00:00 20.3 12 Noroeste 24 Oeste 0.2 -- -- 58
2019-06-20 19:00:00 21.5 6 Sudoeste 26 Sur 0.2 -- -- 59
2019-06-20 18:00:00 24 12 Sur 29 Sudeste 0 -- -- 38
2019-06-20 17:00:00 25 17 Sur 34 Oeste 0 -- -- 37
2019-06-20 16:00:00 25.9 3 Noroeste 20 Oeste 0 -- -- 32
2019-06-20 15:00:00 26.3 8 Noroeste 22 Noroeste 0 -- -- 32
2019-06-20 14:00:00 24 7 Nordeste 13 Nordeste 0 -- -- 38
2019-06-20 13:00:00 22.5 4 Nordeste 13 Nordeste 0 -- -- 43
2019-06-20 12:00:00 22 9 Sudeste 17 Sudeste 0 -- -- 44
2019-06-20 11:00:00 20 6 Nordeste 11 Nordeste 0 -- -- 48
2019-06-20 10:00:00 19.6 2 Sudeste 6 Sur 0 -- -- 51
2019-06-20 09:00:00 17 2 Noroeste 8 Oeste 0 -- -- 59
2019-06-20 08:00:00 15.7 4 Noroeste 8 Noroeste 0 -- -- 64
2019-06-20 07:00:00 15.4 3 Noroeste 9 Noroeste 0 -- -- 64
2019-06-20 06:00:00 15.5 7 Noroeste 10 Noroeste 0 -- -- 64
2019-06-20 05:00:00 15.5 3 Oeste 5 Oeste 0 -- -- 65
2019-06-20 04:00:00 15.1 3 Noroeste 5 Norte 0 -- -- 65
2019-06-20 03:00:00 15.7 0 Calma 7 Noroeste 0 -- -- 64
2019-06-20 02:00:00 16.3 4 Norte 10 Noroeste 0 -- -- 62
2019-06-20 01:00:00 17.4 7 Noroeste 12 Noroeste 0 -- -- 59
2019-06-20 00:00:00 17.7 7 Oeste 12 Oeste 0 -- -- 59
2019-06-19 23:00:00 19.2 3 Noroeste 14 Noroeste 0 -- -- 53
2019-06-19 22:00:00 20.9 6 Noroeste 22 Oeste 0 -- -- 49
2019-06-19 21:00:00 21.8 13 Noroeste 26 Norte 0 -- -- 47
2019-06-19 20:00:00 22.5 15 Noroeste 31 Noroeste 0 -- -- 45
2019-06-19 19:00:00 23.4 20 Noroeste 46 Noroeste 0 -- -- 41
2019-06-19 18:00:00 24.2 15 Noroeste 31 Noroeste 0 -- -- 40
2019-06-19 17:00:00 24.2 14 Noroeste 30 Norte 0 -- -- 41
2019-06-19 16:00:00 24.9 18 Noroeste 40 Oeste 0 -- -- 37
2019-06-19 15:00:00 24.2 14 Noroeste 35 Noroeste 0 -- -- 39
2019-06-19 14:00:00 -- -- -- -- -- -- -- -- --
2019-06-19 13:00:00 22.1 17 Sudoeste 33 Oeste 0 -- -- 42
2019-06-19 12:00:00 20 17 Oeste 35 Noroeste 0 -- -- 50
2019-06-19 11:00:00 20.2 17 Oeste 33 Noroeste 0 -- -- 48
2019-06-19 10:00:00 18.5 14 Oeste 27 Oeste 0 -- -- 60
2019-06-19 09:00:00 15.9 7 Oeste 17 Oeste 0 -- -- 72
2019-06-19 08:00:00 14.1 6 Oeste 14 Oeste 0 -- -- 79
2019-06-19 07:00:00 13.1 0 Calma 6 Sur 0 -- -- 78
2019-06-19 06:00:00 13.8 4 Sur 20 Oeste 0 -- -- 73
2019-06-19 05:00:00 14.5 4 Sudoeste 13 Sudeste 0 -- -- 71
2019-06-19 04:00:00 15.3 5 Sudoeste 16 Oeste 0 -- -- 72
2019-06-19 03:00:00 -- -- -- -- -- -- -- -- --
2019-06-19 02:00:00 17.5 19 Oeste 27 Oeste 0 -- -- 65
2019-06-19 01:00:00 17.5 9 Oeste 24 Oeste 0 -- -- 64
2019-06-19 00:00:00 18.2 11 Oeste 20 Oeste 0 -- -- 60
2019-06-18 23:00:00 19.3 11 Oeste 28 Oeste 0 -- -- 55
2019-06-18 22:00:00 20.7 12 Oeste 38 Oeste 0 -- -- 50
2019-06-18 21:00:00 23.1 22 Oeste 39 Oeste 0 -- -- 42
2019-06-18 20:00:00 23.4 28 Oeste 51 Oeste 0 -- -- 39
2019-06-18 19:00:00 24.3 30 Oeste 50 Oeste 0 -- -- 40
2019-06-18 18:00:00 26.1 31 Oeste 56 Oeste 0 -- -- 33
2019-06-18 17:00:00 27.3 23 Sudoeste 45 Oeste 0 -- -- 21
2019-06-18 16:00:00 26.9 23 Oeste 45 Oeste 0 -- -- 25
2019-06-18 15:00:00 27.1 22 Oeste 41 Oeste 0 -- -- 20
2019-06-18 14:00:00 28.1 18 Sudoeste 44 Oeste 0 -- -- 13
2019-06-18 13:00:00 26.7 14 Oeste 35 Sur 0 -- -- 18
2019-06-18 12:00:00 25.7 17 Sudoeste 35 Sur 0 -- -- 17
2019-06-18 11:00:00 24.5 15 Sudoeste 27 Sur 0 -- -- 21
2019-06-18 10:00:00 21.1 5 Sur 17 Oeste 0 -- -- 39
2019-06-18 09:00:00 17.7 12 Sudoeste 28 Oeste 0 -- -- 48
2019-06-18 08:00:00 16.3 14 Oeste 29 Sudoeste 0 -- -- 47
2019-06-18 07:00:00 13.1 2 Sudoeste 8 Sur 0 -- -- 43
2019-06-18 06:00:00 13 6 Sur 12 Sur 0 -- -- 42
2019-06-18 05:00:00 13.4 10 Sur 14 Sur 0 -- -- 43
2019-06-18 04:00:00 15.7 6 Sur 10 Sur 0 -- -- 44
2019-06-18 03:00:00 18.9 3 Sur 9 Sudeste 0 -- -- 35
2019-06-18 02:00:00 19.2 6 Sudeste 12 Sudeste 0 -- -- 35
2019-06-18 01:00:00 20.1 4 Este 11 Norte 0 -- -- 33
2019-06-18 00:00:00 21.4 9 Norte 14 Norte 0 -- -- 30
2019-06-17 23:00:00 22.6 3 Noroeste 6 Noroeste 0 -- -- 24
2019-06-17 22:00:00 23.6 4 Noroeste 19 Oeste 0 -- -- 23
2019-06-17 21:00:00 24.9 12 Noroeste 30 Noroeste 0 -- -- 23
2019-06-17 20:00:00 26 17 Noroeste 39 Noroeste 0 -- -- 24
2019-06-17 19:00:00 28 23 Noroeste 41 Noroeste 0 -- -- 21
2019-06-17 18:00:00 29.9 12 Sudoeste 33 Sudoeste 0 -- -- 16
2019-06-17 17:00:00 29.7 15 Sur 37 Sudeste 0 -- -- 17
2019-06-17 16:00:00 29.2 13 Sur 31 Sur 0 -- -- 19
2019-06-17 15:00:00 28.8 17 Sur 42 Sur 0 -- -- 20
2019-06-17 14:00:00 27.7 10 Noroeste 22 Noroeste 0 -- -- 22
2019-06-17 13:00:00 26.6 5 Sudoeste 17 Sudoeste 0 -- -- 25
2019-06-17 12:00:00 24.6 6 Sudoeste 15 Oeste 0 -- -- 28
2019-06-17 11:00:00 23.2 6 Oeste 18 Oeste 0 -- -- 35
2019-06-17 10:00:00 20.3 4 Sudoeste 9 Sur 0 -- -- 46
2019-06-17 09:00:00 15.1 6 Sur 9 Sur 0 -- -- 45
2019-06-17 08:00:00 11.1 4 Sudoeste 8 Sur 0 -- -- 52
2019-06-17 07:00:00 9 3 Sudoeste 9 Sur 0 -- -- 58
2019-06-17 06:00:00 9.4 6 Sur 9 Sur 0 -- -- 58
2019-06-17 05:00:00 11.5 8 Sur 12 Sur 0 -- -- 49
2019-06-17 04:00:00 11.8 4 Sur 11 Sur -- -- -- 49
2019-06-17 03:00:00 12.2 7 Sur 12 Sur 0 -- -- 48
2019-06-17 02:00:00 14.5 6 Sur 9 Sur 0 -- -- 41
2019-06-17 01:00:00 15.7 3 Sur 13 Sur 0 -- -- 40
2019-06-17 00:00:00 17.2 7 Sur 10 Sur 0 -- -- 36
2019-06-16 23:00:00 20.5 5 Sudoeste 14 Oeste 0 -- -- 27
2019-06-16 22:00:00 23.2 9 Oeste 19 Noroeste 0 -- -- 23
2019-06-16 21:00:00 25.7 10 Noroeste 29 Noroeste 0 -- -- 19
2019-06-16 20:00:00 27.7 11 Noroeste 24 Oeste 0 -- -- 20
2019-06-16 19:00:00 28.6 8 Oeste 20 Noroeste 0 -- -- 19
2019-06-16 18:00:00 27.3 11 Noroeste 23 Oeste 0 -- -- 20
2019-06-16 17:00:00 28.3 7 Sudeste 22 Sudeste 0 -- -- 19
2019-06-16 16:00:00 27.9 7 Norte 26 Sudoeste 0 -- -- 19
2019-06-16 15:00:00 27.1 9 Este 19 Sudoeste 0 -- -- 19
2019-06-16 14:00:00 26.6 9 Noroeste 21 Sudeste 0 -- -- 21
2019-06-16 13:00:00 25.7 5 Noroeste 23 Noroeste 0 -- -- 22
2019-06-16 12:00:00 24.1 9 Oeste 18 Oeste 0 -- -- 25
2019-06-16 11:00:00 21.8 4 Oeste 8 Noroeste 0 -- -- 30
2019-06-16 10:00:00 18.3 2 Este 7 Sudoeste 0 -- -- 35
2019-06-16 09:00:00 12.9 4 Sur 13 Sur 0 -- -- 45
2019-06-16 08:00:00 8.3 8 Sur 12 Sur 0 -- -- 54
2019-06-16 07:00:00 6.6 6 Sur 10 Sur 0 -- -- 57
2019-06-16 06:00:00 6.2 7 Sur 13 Sur 0 -- -- 62
2019-06-16 05:00:00 8.1 5 Sur 8 Sur 0 -- -- 56
2019-06-16 04:00:00 9.4 4 Sur 9 Sur 0 -- -- 52
2019-06-16 03:00:00 9.7 5 Sur 11 Noroeste 0 -- -- 51
2019-06-16 02:00:00 11 5 Sur 10 Sur 0 -- -- 48
2019-06-16 01:00:00 12.5 4 Sudoeste 8 Sur 0 -- -- 52
2019-06-16 00:00:00 14.5 0 Calma 4 Nordeste 0 -- -- 42
2019-06-15 23:00:00 16.6 2 Oeste 5 Norte 0 -- -- 38
2019-06-15 22:00:00 19.8 4 Norte 12 Norte 0 -- -- 29
2019-06-15 21:00:00 21.3 8 Noroeste 18 Norte 0 -- -- 28
2019-06-15 20:00:00 22.5 6 Noroeste 18 Noroeste 0 -- -- 26
2019-06-15 19:00:00 22.7 6 Sudoeste 23 Noroeste 0 -- -- 25
2019-06-15 18:00:00 22.4 4 Sudoeste 23 Oeste 0 -- -- 25
2019-06-15 17:00:00 21.7 6 Sudeste 22 Sudoeste 0 -- -- 26
2019-06-15 16:00:00 21.2 10 Noroeste 22 Oeste 0 -- -- 29
2019-06-15 15:00:00 20.1 8 Sur 22 Noroeste 0 -- -- 34
2019-06-15 14:00:00 18.4 6 Sudoeste 21 Sur 0 -- -- 39
2019-06-15 13:00:00 17.4 5 Noroeste 16 Sudeste 0 -- -- 42
2019-06-15 12:00:00 15.4 4 Oeste 17 Oeste 0 -- -- 49
2019-06-15 11:00:00 14.1 8 Oeste 17 Oeste 0 -- -- 56
2019-06-15 10:00:00 12.6 9 Oeste 20 Oeste 0 -- -- 64
2019-06-15 09:00:00 10.7 11 Oeste 21 Oeste 0 -- -- 71
2019-06-15 08:00:00 8.8 7 Sudoeste 12 Oeste 0 -- -- 77
2019-06-15 07:00:00 7.7 4 Noroeste 12 Noroeste 0 -- -- 79
2019-06-15 06:00:00 7.7 7 Sudoeste 17 Oeste 0 -- -- 76
2019-06-15 05:00:00 8.5 9 Oeste 15 Oeste 0 -- -- 73
2019-06-15 04:00:00 9.2 7 Oeste 17 Oeste 0 -- -- 68
2019-06-15 03:00:00 10 6 Oeste 15 Oeste 0 -- -- 65
2019-06-15 02:00:00 11.5 8 Oeste 18 Oeste 0 -- -- 59
2019-06-15 01:00:00 12 13 Oeste 21 Oeste 0 -- -- 56
2019-06-15 00:00:00 13.1 14 Noroeste 27 Oeste 0 -- -- 51
2019-06-14 23:00:00 14.8 16 Oeste 35 Noroeste 0 -- -- 43
2019-06-14 22:00:00 16.7 19 Noroeste 38 Oeste 0 -- -- 38
2019-06-14 21:00:00 17.8 20 Noroeste 45 Noroeste 0 -- -- 36
2019-06-14 20:00:00 20.1 22 Noroeste 38 Noroeste 0 -- -- 31
2019-06-14 19:00:00 20.4 20 Noroeste 42 Noroeste 0 -- -- 32
2019-06-14 18:00:00 21.5 23 Noroeste 45 Oeste 0 -- -- 28
2019-06-14 17:00:00 22.4 23 Oeste 45 Oeste 0 -- -- 20
2019-06-14 16:00:00 22.5 22 Oeste 46 Oeste 0 -- -- 19
2019-06-14 15:00:00 22 22 Noroeste 44 Noroeste 0 -- -- 25
2019-06-14 14:00:00 21.7 19 Oeste 35 Sudoeste 0 -- -- 29
2019-06-14 13:00:00 21.1 17 Oeste 31 Oeste 0 -- -- 25
2019-06-14 12:00:00 20.2 10 Oeste 28 Oeste 0 -- -- 28
2019-06-14 11:00:00 18.2 11 Oeste 28 Oeste 0 -- -- 36
2019-06-14 10:00:00 16 10 Oeste 16 Oeste 0 -- -- 44
2019-06-14 09:00:00 12.7 8 Oeste 23 Oeste 0 -- -- 54
2019-06-14 08:00:00 9.2 7 Sudoeste 18 Sudoeste 0 -- -- 62
2019-06-14 07:00:00 6.6 4 Sur 10 Sur 0 -- -- 61
2019-06-14 06:00:00 8 5 Sur 11 Sudoeste 0 -- -- 57
2019-06-14 05:00:00 8.8 3 Sudoeste 9 Sudoeste 0 -- -- 56
2019-06-14 04:00:00 9.7 3 Sudoeste 8 Sur 0 -- -- 53
2019-06-14 03:00:00 11.5 3 Sur 7 Oeste 0 -- -- 49
2019-06-14 02:00:00 13.1 3 Oeste 6 Oeste 0 -- -- 44
2019-06-14 01:00:00 14.8 3 Noroeste 9 Noroeste 0 -- -- 39
2019-06-14 00:00:00 16.1 6 Norte 9 Noroeste 0 -- -- 34
2019-06-13 23:00:00 18.3 4 Noroeste 13 Oeste 0 -- -- 26
2019-06-13 22:00:00 20.7 8 Oeste 29 Oeste 0 -- -- 17
2019-06-13 21:00:00 22.8 15 Noroeste 36 Noroeste 0 -- -- 16
2019-06-13 20:00:00 24 21 Noroeste 38 Oeste 0 -- -- 17
2019-06-13 19:00:00 24.8 21 Oeste 41 Noroeste 0 -- -- 17
2019-06-13 18:00:00 24.8 24 Oeste 42 Oeste 0 -- -- 17
2019-06-13 17:00:00 25.1 20 Oeste 35 Oeste 0 -- -- 18
2019-06-13 16:00:00 24.4 15 Oeste 32 Oeste 0 -- -- 22
2019-06-13 15:00:00 23.7 11 Oeste 29 Noroeste 0 -- -- 25
2019-06-13 14:00:00 22.5 11 Noroeste 26 Oeste 0 -- -- 26
2019-06-13 13:00:00 20.9 9 Oeste 21 Oeste 0 -- -- 30
2019-06-13 12:00:00 18.6 6 Sudoeste 17 Oeste 0 -- -- 37
2019-06-13 11:00:00 16.2 6 Noroeste 14 Oeste 0 -- -- 42
2019-06-13 10:00:00 13.9 8 Noroeste 13 Oeste 0 -- -- 48
2019-06-13 09:00:00 11.2 6 Oeste 13 Oeste 0 -- -- 50
2019-06-13 08:00:00 7.8 3 Sudeste 11 Oeste 0 -- -- 55
2019-06-13 07:00:00 5 5 Sudoeste 13 Sur 0 -- -- 61
2019-06-13 06:00:00 5.7 6 Sur 9 Sudeste 0 -- -- 56
2019-06-13 05:00:00 5.9 8 Sur 12 Sur 0 -- -- 54
2019-06-13 04:00:00 7.1 3 Sur 8 Sur 0 -- -- 54
2019-06-13 03:00:00 9 4 Sudoeste 13 Noroeste 0 -- -- 50
2019-06-13 02:00:00 10 5 Sur 8 Sur 0 -- -- 51
2019-06-13 01:00:00 11.6 2 Oeste 5 Oeste 0 -- -- 42
2019-06-13 00:00:00 14.4 4 Nordeste 9 Nordeste 0 -- -- 32
2019-06-12 23:00:00 16.4 4 Norte 13 Norte 0 -- -- 29
2019-06-12 22:00:00 18.7 7 Norte 15 Norte 0 -- -- 25
2019-06-12 21:00:00 20.9 6 Nordeste 22 Norte 0 -- -- 23
2019-06-12 20:00:00 21.8 7 Noroeste 24 Noroeste 0 -- -- 22
2019-06-12 19:00:00 22 13 Noroeste 29 Norte 0 -- -- 22
2019-06-12 18:00:00 22.1 10 Noroeste 24 Noroeste 0 -- -- 21
2019-06-12 17:00:00 21.2 10 Oeste 24 Oeste 0 -- -- 23
2019-06-12 16:00:00 20.5 15 Oeste 30 Oeste 0 -- -- 26
2019-06-12 15:00:00 19.5 10 Norte 30 Noroeste 0 -- -- 27
2019-06-12 14:00:00 18.6 9 Noroeste 21 Oeste 0 -- -- 31
2019-06-12 13:00:00 16.6 4 Norte 15 Este 0 -- -- 37
2019-06-12 12:00:00 14.7 5 Norte 15 Nordeste 0 -- -- 41
2019-06-12 11:00:00 13 7 Este 14 Este 0 -- -- 46
2019-06-12 10:00:00 10.9 7 Nordeste 15 Nordeste 0 -- -- 52
2019-06-12 09:00:00 9.1 3 Sudeste 6 Sudeste 0 -- -- 57
2019-06-12 08:00:00 3.8 4 Sur 8 Sur 0 -- -- 74
2019-06-12 07:00:00 2.6 4 Sur 9 Sur 0 -- -- 76
2019-06-12 06:00:00 3.7 0 Calma 5 Sur 0 -- -- 72
2019-06-12 05:00:00 5.7 0 Calma 5 Noroeste 0 -- -- 68
2019-06-12 04:00:00 6.8 3 Noroeste 10 Norte 0 -- -- 63
2019-06-12 03:00:00 7.7 4 Norte 16 Norte 0 -- -- 60
2019-06-12 02:00:00 8.8 8 Norte 14 Norte 0 -- -- 55
2019-06-12 01:00:00 10.2 7 Norte 15 Nordeste 0 -- -- 51
2019-06-12 00:00:00 11.6 6 Norte 17 Norte 0 -- -- 45
2019-06-11 23:00:00 13 10 Norte 17 Norte 0 -- -- 40
2019-06-11 22:00:00 14.8 11 Norte 26 Norte 0 -- -- 35
2019-06-11 21:00:00 16.8 17 Norte 32 Norte 0 -- -- 29
2019-06-11 20:00:00 18.1 13 Norte 38 Norte 0 -- -- 25
2019-06-11 19:00:00 18.1 12 Norte 30 Nordeste 0 -- -- 26
2019-06-11 18:00:00 18.6 16 Nordeste 35 Norte 0 -- -- 24
2019-06-11 17:00:00 18.3 13 Nordeste 35 Nordeste 0 -- -- 25
2019-06-11 16:00:00 17.8 13 Norte 39 Norte 0 -- -- 26
2019-06-11 15:00:00 17.3 19 Norte 33 Noroeste 0 -- -- 26
2019-06-11 14:00:00 16 17 Norte 28 Norte 0 -- -- 33
2019-06-11 13:00:00 13.7 13 Norte 21 Norte 0 -- -- 45
2019-06-11 12:00:00 12.5 12 Norte 28 Norte 0 -- -- 53
2019-06-11 11:00:00 11.6 12 Nordeste 22 Nordeste 0 -- -- 61
2019-06-11 10:00:00 10.4 12 Norte 20 Norte 0 -- -- 65
2019-06-11 09:00:00 10.2 8 Norte 14 Norte 0 -- -- 69
2019-06-11 08:00:00 9.8 6 Nordeste 12 Nordeste 0 -- -- 69
2019-06-11 07:00:00 9.5 6 Nordeste 12 Nordeste 0 -- -- 71
2019-06-11 06:00:00 9.6 9 Norte 17 Norte 0 -- -- 74
2019-06-11 05:00:00 10.3 11 Norte 18 Norte 0 -- -- 71
2019-06-11 04:00:00 11 10 Norte 20 Norte 0 -- -- 67
2019-06-11 03:00:00 12.5 11 Norte 23 Norte 0 -- -- 62
2019-06-11 02:00:00 14 14 Noroeste 22 Noroeste 0 -- -- 53
2019-06-11 01:00:00 14.7 10 Noroeste 26 Norte 0 -- -- 41
2019-06-11 00:00:00 16.2 18 Noroeste 30 Noroeste 0 -- -- 36
2019-06-10 23:00:00 17.8 13 Noroeste 31 Oeste 0 -- -- 26
2019-06-10 22:00:00 19 13 Noroeste 25 Oeste 0 -- -- 30
2019-06-10 21:00:00 21.3 8 Noroeste 19 Norte 0 -- -- 28
2019-06-10 20:00:00 21.7 12 Noroeste 21 Noroeste 0 -- -- 26
2019-06-10 19:00:00 21.9 13 Noroeste 24 Oeste 0 -- -- 24
2019-06-10 18:00:00 21.8 13 Oeste 34 Oeste 0 -- -- 27
2019-06-10 17:00:00 21.3 12 Noroeste 24 Noroeste 0 -- -- 27
2019-06-10 16:00:00 20.7 10 Noroeste 24 Noroeste 0 -- -- 29
2019-06-10 15:00:00 19.6 11 Noroeste 24 Oeste 0 -- -- 34
2019-06-10 14:00:00 18.5 12 Noroeste 26 Noroeste 0 -- -- 38
2019-06-10 13:00:00 17.3 9 Noroeste 21 Oeste 0 -- -- 45
2019-06-10 12:00:00 15.9 7 Norte 16 Nordeste 0 -- -- 52
2019-06-10 11:00:00 14.3 8 Norte 16 Nordeste 0 -- -- 60
2019-06-10 10:00:00 12.4 5 Nordeste 10 Nordeste 0 -- -- 70
2019-06-10 09:00:00 10.7 3 Norte 7 Norte 0 -- -- 77
2019-06-10 08:00:00 7.5 5 Norte 8 Norte 0 -- -- 89
2019-06-10 07:00:00 6.8 0 Calma 6 Norte 0 -- -- 89
2019-06-10 06:00:00 7.3 5 Norte 10 Norte 0 -- -- 90
2019-06-10 05:00:00 8.4 5 Norte 10 Norte 0 -- -- 86
2019-06-10 04:00:00 9.5 5 Norte 9 Norte 0 -- -- 83
2019-06-10 03:00:00 10.2 4 Nordeste 12 Nordeste 0 -- -- 80
2019-06-10 02:00:00 11.1 7 Nordeste 13 Nordeste 0 -- -- 75
2019-06-10 01:00:00 12.7 6 Norte 17 Norte 0 -- -- 62
2019-06-10 00:00:00 14.7 6 Noroeste 22 Noroeste 0 -- -- 49
2019-06-09 23:00:00 16.2 12 Noroeste 29 Noroeste 0 -- -- 43
2019-06-09 22:00:00 18 16 Noroeste 33 Noroeste 0 -- -- 39
2019-06-09 21:00:00 19.6 21 Noroeste 31 Noroeste 0 -- -- 35
2019-06-09 20:00:00 21.6 14 Noroeste 31 Oeste 0 -- -- 30
2019-06-09 19:00:00 23.3 15 Noroeste 32 Oeste 0 -- -- 25
2019-06-09 18:00:00 23.5 13 Noroeste 34 Noroeste 0 -- -- 27
2019-06-09 17:00:00 23.3 15 Oeste 30 Oeste 0 -- -- 27
2019-06-09 16:00:00 22.9 14 Noroeste 33 Oeste 0 -- -- 32
2019-06-09 15:00:00 22.5 12 Noroeste 30 Oeste 0 -- -- 32
2019-06-09 14:00:00 21.3 10 Noroeste 24 Oeste 0 -- -- 34
2019-06-09 13:00:00 19.8 11 Oeste 26 Oeste 0 -- -- 37
2019-06-09 12:00:00 18.5 11 Noroeste 29 Oeste 0 -- -- 46
2019-06-09 11:00:00 16.7 13 Noroeste 23 Noroeste 0 -- -- 54
2019-06-09 10:00:00 14.7 11 Oeste 19 Oeste 0 -- -- 62
2019-06-09 09:00:00 12.8 10 Oeste 20 Oeste 0 -- -- 65
2019-06-09 08:00:00 10.8 6 Sudoeste 12 Oeste 0 -- -- 70
2019-06-09 07:00:00 9.8 4 Sudeste 17 Oeste 0 -- -- 71
2019-06-09 06:00:00 11.4 12 Oeste 23 Oeste 0 -- -- 64
2019-06-09 05:00:00 11.9 8 Oeste 20 Oeste 0 -- -- 55
2019-06-09 04:00:00 13.2 16 Oeste 22 Oeste 0 -- -- 51
2019-06-09 03:00:00 13.8 9 Oeste 20 Noroeste 0 -- -- 49
2019-06-09 02:00:00 15.5 15 Noroeste 24 Oeste 0 -- -- 43
2019-06-09 01:00:00 17.4 7 Oeste 19 Noroeste 0 -- -- 36
2019-06-09 00:00:00 17.8 2 Oeste 8 Sudoeste 0 -- -- 40
2019-06-08 23:00:00 19.1 3 Sudoeste 6 Oeste 0 -- -- 35
2019-06-08 22:00:00 20.5 5 Norte 18 Noroeste 0 -- -- 30
2019-06-08 21:00:00 22.2 10 Noroeste 23 Norte 0 -- -- 27
2019-06-08 20:00:00 23.2 17 Norte 30 Noroeste 0 -- -- 26
2019-06-08 19:00:00 24.9 13 Noroeste 28 Oeste 0 -- -- 23
2019-06-08 18:00:00 25.5 14 Sur 30 Sur 0 -- -- 21
2019-06-08 17:00:00 25.4 14 Sudoeste 34 Sur 0 -- -- 23
2019-06-08 16:00:00 25.4 15 Sur 32 Sudeste 0 -- -- 23
2019-06-08 15:00:00 24.7 9 Sur 31 Sudeste 0 -- -- 25
2019-06-08 14:00:00 22.8 8 Este 18 Este 0 -- -- 29
2019-06-08 13:00:00 20.2 6 Norte 14 Norte 0 -- -- 32
2019-06-08 12:00:00 18.7 5 Noroeste 17 Este 0 -- -- 33
2019-06-08 11:00:00 15.6 8 Nordeste 15 Nordeste 0 -- -- 41
2019-06-08 10:00:00 12.9 2 Nordeste 8 Nordeste 0 -- -- 49
2019-06-08 09:00:00 9.2 0 Calma 6 Sur 0 -- -- 60
2019-06-08 08:00:00 4.6 3 Sur 6 Sudoeste 0 -- -- 77
2019-06-08 07:00:00 2.9 3 Sudoeste 6 Sudoeste 0 -- -- 82
2019-06-08 06:00:00 3.6 2 Sur 5 Sur 0 -- -- 77
2019-06-08 05:00:00 4.5 2 Oeste 5 Sur 0 -- -- 76
2019-06-08 04:00:00 5.1 4 Sur 5 Sur 0 -- -- 72
2019-06-08 03:00:00 7 2 Sur 8 Norte 0 -- -- 65
2019-06-08 02:00:00 8.1 4 Noroeste 8 Noroeste 0 -- -- 59
2019-06-08 01:00:00 8.7 3 Oeste 9 Noroeste 0 -- -- 57
2019-06-08 00:00:00 10.7 0 Calma 8 Norte 0 -- -- 50
2019-06-07 23:00:00 12.9 5 Norte 10 Noroeste 0 -- -- 43
2019-06-07 22:00:00 14.4 7 Noroeste 17 Noroeste 0 -- -- 38
2019-06-07 21:00:00 16.4 12 Norte 21 Noroeste 0 -- -- 34
2019-06-07 20:00:00 17.9 10 Noroeste 23 Noroeste 0 -- -- 30
2019-06-07 19:00:00 18.1 12 Oeste 28 Norte 0 -- -- 30
2019-06-07 18:00:00 17.4 13 Oeste 28 Noroeste 0 -- -- 32
2019-06-07 17:00:00 17.7 14 Oeste 32 Oeste 0 -- -- 33
2019-06-07 16:00:00 17.4 14 Noroeste 30 Oeste 0 -- -- 35
2019-06-07 15:00:00 15.8 16 Noroeste 34 Noroeste 0 -- -- 39
2019-06-07 14:00:00 14.9 14 Noroeste 31 Noroeste 0 -- -- 43
2019-06-07 13:00:00 14.1 14 Noroeste 36 Oeste 0 -- -- 46
2019-06-07 12:00:00 13.2 18 Noroeste 37 Noroeste 0 -- -- 51
2019-06-07 11:00:00 11.7 18 Noroeste 37 Noroeste 0 -- -- 59
2019-06-07 10:00:00 10 23 Noroeste 39 Oeste 0 -- -- 66
2019-06-07 09:00:00 9 19 Oeste 37 Noroeste 0 -- -- 73
2019-06-07 08:00:00 8 14 Oeste 32 Oeste 0 -- -- 81
2019-06-07 07:00:00 7.1 22 Oeste 31 Oeste 0 -- -- 83
2019-06-07 06:00:00 6.7 18 Oeste 35 Oeste 0.2 -- -- 85
2019-06-07 05:00:00 6.8 15 Oeste 28 Oeste 0 -- -- 85
2019-06-07 04:00:00 7.3 15 Oeste 37 Oeste 0 -- -- 87
2019-06-07 03:00:00 8.7 17 Oeste 35 Oeste 0 -- -- 87
2019-06-07 02:00:00 8.3 11 Oeste 36 Noroeste 0 -- -- 87
2019-06-07 01:00:00 8.4 26 Noroeste 41 Oeste 0.6 -- -- 88
2019-06-07 00:00:00 10.2 24 Noroeste 50 Noroeste 0.8 -- -- 87
2019-06-06 23:00:00 16.5 21 Sudoeste 42 Sudoeste 0 -- -- 48
2019-06-06 22:00:00 17.8 24 Sudoeste 48 Sudoeste 0 -- -- 40
2019-06-06 21:00:00 18.3 28 Sudoeste 51 Sudoeste 0 -- -- 37
2019-06-06 20:00:00 19.7 27 Sudoeste 50 Oeste 0 -- -- 33
2019-06-06 19:00:00 20.7 21 Sudoeste 58 Sudoeste 0 -- -- 32
2019-06-06 18:00:00 22.8 28 Sudoeste 53 Sudoeste 0 -- -- 29
2019-06-06 17:00:00 22.7 27 Sudoeste 46 Oeste 0 -- -- 27
2019-06-06 16:00:00 22.1 16 Oeste 41 Oeste 0 -- -- 26
2019-06-06 15:00:00 20.6 19 Sudoeste 34 Oeste 0 -- -- 27
2019-06-06 14:00:00 20.4 10 Sudoeste 31 Sudoeste 0 -- -- 28
2019-06-06 13:00:00 19.3 14 Sudoeste 27 Sur 0 -- -- 30
2019-06-06 12:00:00 16.2 8 Noroeste 19 Sudoeste 0 -- -- 38
2019-06-06 11:00:00 13.6 9 Sudoeste 16 Oeste 0.4 -- -- 48
2019-06-06 10:00:00 12.5 3 Sur 10 Oeste 0 -- -- 53
2019-06-06 09:00:00 8.9 4 Sudoeste 11 Sur 0 -- -- 64
2019-06-06 08:00:00 5.6 8 Sur 10 Sur 0 -- -- 72
2019-06-06 07:00:00 4.7 6 Sur 9 Sudoeste 0 -- -- 76
2019-06-06 06:00:00 5.8 5 Sur 11 Oeste 0 -- -- 71
2019-06-06 05:00:00 7.4 4 Oeste 14 Noroeste 0 -- -- 66
2019-06-06 04:00:00 8.4 7 Oeste 14 Oeste 0 -- -- 61
2019-06-06 03:00:00 9.2 6 Oeste 16 Oeste 0 -- -- 58
2019-06-06 02:00:00 10.3 5 Oeste 15 Oeste 0 -- -- 55
2019-06-06 01:00:00 11.7 10 Noroeste 19 Noroeste 0 -- -- 49
2019-06-06 00:00:00 11.9 7 Noroeste 16 Noroeste 0 -- -- 50
2019-06-05 23:00:00 12.8 9 Noroeste 18 Noroeste 0 -- -- 47
2019-06-05 22:00:00 13.8 9 Noroeste 28 Noroeste 0 -- -- 44
2019-06-05 21:00:00 15.2 12 Noroeste 32 Noroeste 0 -- -- 37
2019-06-05 20:00:00 16 14 Noroeste 33 Oeste 0 -- -- 37
2019-06-05 19:00:00 18 17 Noroeste 39 Oeste 0 -- -- 28
2019-06-05 18:00:00 18.2 15 Noroeste 35 Noroeste 0 -- -- 28
2019-06-05 17:00:00 17.4 18 Noroeste 39 Noroeste 0 -- -- 32
2019-06-05 16:00:00 18.8 19 Noroeste 40 Oeste 0 -- -- 31
2019-06-05 15:00:00 16.7 15 Noroeste 35 Noroeste 0 -- -- 36
2019-06-05 14:00:00 16.2 15 Noroeste 38 Noroeste 0 -- -- 39
2019-06-05 13:00:00 14.8 16 Noroeste 31 Noroeste 0 -- -- 45
2019-06-05 12:00:00 13.1 14 Noroeste 28 Noroeste 0 -- -- 52
2019-06-05 11:00:00 12.4 17 Noroeste 36 Oeste 0 -- -- 57
2019-06-05 10:00:00 11.4 17 Noroeste 40 Noroeste 0 -- -- 66
2019-06-05 09:00:00 8.7 21 Noroeste 34 Noroeste 0 -- -- 79
2019-06-05 08:00:00 7.7 16 Oeste 29 Oeste 0 -- -- 83
2019-06-05 07:00:00 8.6 16 Noroeste 27 Noroeste 0 -- -- 78
2019-06-05 06:00:00 9.2 13 Noroeste 29 Noroeste 0 -- -- 79
2019-06-05 05:00:00 9.7 14 Noroeste 24 Noroeste 0 -- -- 77
2019-06-05 04:00:00 9.7 12 Noroeste 29 Noroeste 0 -- -- 80
2019-06-05 03:00:00 11.1 16 Noroeste 37 Noroeste 0 -- -- 72
2019-06-05 02:00:00 12.9 23 Noroeste 37 Noroeste 0 -- -- 64
2019-06-05 01:00:00 15 10 Noroeste 20 Oeste 0 -- -- 53
2019-06-05 00:00:00 15.4 13 Noroeste 24 Noroeste 0 -- -- 56
2019-06-04 23:00:00 16.7 10 Noroeste 20 Oeste 0 -- -- 54
2019-06-04 22:00:00 17.4 12 Oeste 23 Noroeste 0 -- -- 54
2019-06-04 21:00:00 18 14 Noroeste 30 Oeste 0 -- -- 54
2019-06-04 20:00:00 19.6 17 Noroeste 37 Noroeste 0 -- -- 52
2019-06-04 19:00:00 20 21 Noroeste 44 Norte 0 -- -- 52
2019-06-04 18:00:00 24.3 18 Noroeste 36 Oeste 0 -- -- 35
2019-06-04 17:00:00 23.6 14 Noroeste 33 Noroeste 0 -- -- 37
2019-06-04 16:00:00 24.3 18 Noroeste 41 Noroeste 0 -- -- 34
2019-06-04 15:00:00 23.3 21 Oeste 44 Noroeste 0 -- -- 37
2019-06-04 14:00:00 22.7 16 Noroeste 37 Noroeste 0 -- -- 38
2019-06-04 13:00:00 21.1 14 Oeste 28 Oeste 0 -- -- 43
2019-06-04 12:00:00 19.1 14 Oeste 31 Noroeste 0 -- -- 50
2019-06-04 11:00:00 17.1 15 Oeste 29 Oeste 0 -- -- 59
2019-06-04 10:00:00 15 13 Noroeste 25 Noroeste 0 -- -- 70
2019-06-04 09:00:00 14 12 Oeste 22 Oeste 0 -- -- 77
2019-06-04 08:00:00 13.5 8 Oeste 17 Noroeste 0 -- -- 82
2019-06-04 07:00:00 12.5 10 Noroeste 19 Noroeste 0 -- -- 85
2019-06-04 06:00:00 13.4 10 Noroeste 21 Noroeste 0 -- -- 81
2019-06-04 05:00:00 14.3 4 Oeste 13 Noroeste 0 -- -- 75
2019-06-04 04:00:00 15.6 11 Oeste 21 Oeste 0 -- -- 69
2019-06-04 03:00:00 16.4 9 Oeste 19 Oeste 0 -- -- 65
2019-06-04 02:00:00 18.1 9 Oeste 21 Oeste 0 -- -- 61
2019-06-04 01:00:00 19.6 10 Oeste 21 Oeste 0 -- -- 52
2019-06-04 00:00:00 22.3 12 Oeste 35 Oeste 0 -- -- 33
2019-06-03 23:00:00 23.1 19 Oeste 35 Oeste 0 -- -- 27
2019-06-03 22:00:00 25.1 22 Oeste 40 Oeste 0 -- -- 20
2019-06-03 21:00:00 27.1 28 Oeste 46 Oeste 0 -- -- 17
2019-06-03 20:00:00 28.3 31 Oeste 49 Oeste 0 -- -- 15
2019-06-03 19:00:00 29.2 28 Oeste 51 Oeste 0 -- -- 15
2019-06-03 18:00:00 30.3 24 Oeste 53 Oeste 0 -- -- 13
2019-06-03 17:00:00 30.4 30 Oeste 47 Sudoeste 0 -- -- 12
2019-06-03 16:00:00 30.6 20 Oeste 39 Oeste 0 -- -- 13
2019-06-03 15:00:00 29.7 15 Oeste 36 Oeste 0 -- -- 16
2019-06-03 14:00:00 28.9 11 Sudoeste 25 Oeste 0 -- -- 18
2019-06-03 13:00:00 26.8 5 Oeste 21 Norte 0 -- -- 24
2019-06-03 12:00:00 25 7 Sudoeste 15 Sudoeste 0 -- -- 28
2019-06-03 11:00:00 22.9 6 Oeste 13 Oeste 0 -- -- 32
2019-06-03 10:00:00 20.9 7 Oeste 12 Oeste 0 -- -- 40
2019-06-03 09:00:00 18.8 3 Sudoeste 8 Oeste 0 -- -- 46
2019-06-03 08:00:00 14.3 2 Sur 9 Sur 0 -- -- 55
2019-06-03 07:00:00 14.2 7 Sur 11 Sur 0 -- -- 52
2019-06-03 06:00:00 14.1 5 Sur 9 Sur 0 -- -- 51
2019-06-03 05:00:00 15.1 4 Sur 8 Sur 0 -- -- 51
2019-06-03 04:00:00 16.3 4 Oeste 8 Oeste 0 -- -- 47
2019-06-03 03:00:00 16 3 Sudoeste 10 Sur 0 -- -- 46
2019-06-03 02:00:00 16.9 5 Sur 12 Sur 0 -- -- 43
2019-06-03 01:00:00 19.4 5 Sur 8 Sur 0 -- -- 41
2019-06-03 00:00:00 21.8 4 Noroeste 11 Noroeste 0 -- -- 31
2019-06-02 23:00:00 23.4 3 Noroeste 10 Noroeste 0 -- -- 29
2019-06-02 22:00:00 25.7 6 Noroeste 17 Norte 0 -- -- 25
2019-06-02 21:00:00 28 8 Noroeste 23 Noroeste 0 -- -- 23
2019-06-02 20:00:00 29 13 Norte 29 Norte 0 -- -- 22
2019-06-02 19:00:00 29.3 19 Noroeste 32 Noroeste 0 -- -- 21
2019-06-02 18:00:00 30.7 15 Noroeste 34 Oeste 0 -- -- 19
2019-06-02 17:00:00 31.7 18 Oeste 39 Noroeste 0 -- -- 19
2019-06-02 16:00:00 32.5 15 Noroeste 37 Oeste 0 -- -- 19
2019-06-02 15:00:00 32 9 Noroeste 37 Oeste 0 -- -- 21
2019-06-02 14:00:00 30.8 11 Noroeste 35 Oeste 0 -- -- 21
2019-06-02 13:00:00 30.1 7 Sudoeste 18 Oeste 0 -- -- 21
2019-06-02 12:00:00 28.6 8 Noroeste 16 Noroeste 0 -- -- 23
2019-06-02 11:00:00 27.3 8 Noroeste 15 Noroeste 0 -- -- 25
2019-06-02 10:00:00 24.7 8 Oeste 14 Oeste 0 -- -- 29
2019-06-02 09:00:00 19.7 5 Sur 13 Sudoeste 0 -- -- 43
2019-06-02 08:00:00 15.7 8 Sur 14 Sur 0 -- -- 51
2019-06-02 07:00:00 14.1 7 Sur 11 Sur 0 -- -- 57
2019-06-02 06:00:00 15.1 5 Sudoeste 10 Sur 0 -- -- 55
2019-06-02 05:00:00 16.4 6 Sur 10 Sur 0 -- -- 49
2019-06-02 04:00:00 18.2 6 Oeste 11 Noroeste 0 -- -- 41
2019-06-02 03:00:00 20 8 Noroeste 16 Oeste 0 -- -- 38
2019-06-02 02:00:00 21.9 9 Noroeste 22 Noroeste 0 -- -- 34
2019-06-02 01:00:00 20.1 9 Sudoeste 17 Oeste 0 -- -- 37
2019-06-02 00:00:00 20.9 8 Sur 14 Sur 0 -- -- 36
2019-06-01 23:00:00 22.8 2 Oeste 6 Norte 0 -- -- 30
2019-06-01 22:00:00 27 2 Norte 14 Norte 0 -- -- 22
2019-06-01 21:00:00 29.6 5 Norte 14 Nordeste 0 -- -- 19
2019-06-01 20:00:00 31.5 8 Norte 15 Nordeste 0 -- -- 17
2019-06-01 19:00:00 32 8 Nordeste 19 Noroeste 0 -- -- 16
2019-06-01 18:00:00 32.3 8 Norte 24 Norte 0 -- -- 16
2019-06-01 17:00:00 32.1 7 Oeste 26 Noroeste 0 -- -- 16
2019-06-01 16:00:00 32.2 10 Noroeste 26 Noroeste 0 -- -- 16
2019-06-01 15:00:00 31.3 6 Sudeste 24 Noroeste 0 -- -- 16
2019-06-01 14:00:00 30.8 9 Norte 23 Norte 0 -- -- 18
2019-06-01 13:00:00 30.1 10 Norte 17 Norte 0 -- -- 18
2019-06-01 12:00:00 28.5 9 Noroeste 17 Noroeste 0 -- -- 22
2019-06-01 11:00:00 26.2 7 Oeste 13 Oeste 0 -- -- 23
2019-06-01 10:00:00 23.6 8 Sudoeste 14 Sudoeste 0 -- -- 26
2019-06-01 09:00:00 19.3 4 Sudoeste 8 Sudoeste 0 -- -- 38
2019-06-01 08:00:00 14.4 6 Sur 10 Sur 0 -- -- 45
2019-06-01 07:00:00 12.1 5 Sudoeste 9 Sudoeste 0 -- -- 48
2019-06-01 06:00:00 11.4 4 Sudoeste 13 Sur 0 -- -- 47
2019-06-01 05:00:00 12 6 Sur 12 Sur 0 -- -- 46
2019-06-01 04:00:00 12.6 7 Sudoeste 15 Sur 0 -- -- 41
2019-06-01 03:00:00 14.8 11 Sur 14 Sur 0 -- -- 37
2019-06-01 02:00:00 16.8 4 Sur 13 Sur 0 -- -- 41
2019-06-01 01:00:00 18.9 5 Sudeste 12 Sur 0 -- -- 34
2019-06-01 00:00:00 19.8 0 Calma 3 Este 0 -- -- 30
2019-05-31 23:00:00 22.4 4 Norte 7 Norte 0 -- -- 25
2019-05-31 22:00:00 25.4 4 Noroeste 9 Noroeste 0 -- -- 21
2019-05-31 21:00:00 29.2 4 Noroeste 14 Norte 0 -- -- 17
2019-05-31 20:00:00 30.8 5 Noroeste 19 Norte 0 -- -- 16
2019-05-31 19:00:00 31.1 8 Oeste 16 Norte 0 -- -- 15
2019-05-31 18:00:00 30.9 9 Norte 22 Noroeste 0 -- -- 15
2019-05-31 17:00:00 31 9 Noroeste 19 Noroeste 0 -- -- 15
2019-05-31 16:00:00 30.6 10 Oeste 24 Norte 0 -- -- 15
2019-05-31 15:00:00 29.2 10 Norte 24 Noroeste 0 -- -- 18
2019-05-31 14:00:00 28.7 12 Noroeste 23 Norte 0 -- -- 21
2019-05-31 13:00:00 27.6 6 Nordeste 19 Norte 0 -- -- 23
2019-05-31 12:00:00 26.3 7 Sudeste 12 Sudeste 0 -- -- 26
2019-05-31 11:00:00 24.7 3 Noroeste 9 Este 0 -- -- 28
2019-05-31 10:00:00 22.6 3 Este 8 Este 0 -- -- 30
2019-05-31 09:00:00 18.1 2 Nordeste 5 Este 0 -- -- 44
2019-05-31 08:00:00 12 0 Calma 3 Sudoeste 0 -- -- 57
2019-05-31 07:00:00 9.9 0 Calma 6 Nordeste 0 -- -- 62
2019-05-31 06:00:00 10.2 4 Este 6 Este 0 -- -- 61
2019-05-31 05:00:00 11.1 2 Sur 14 Sudoeste 0 -- -- 57
2019-05-31 04:00:00 11.6 10 Sudoeste 14 Sudoeste 0 -- -- 57
2019-05-31 03:00:00 14.6 8 Sur 11 Sur 0 -- -- 50
2019-05-31 02:00:00 16.6 3 Sudoeste 18 Este 0 -- -- 44
2019-05-31 01:00:00 17.7 4 Este 10 Nordeste 0 -- -- 40
2019-05-31 00:00:00 19.1 6 Nordeste 13 Este 0 -- -- 38
2019-05-30 23:00:00 20.3 6 Nordeste 14 Nordeste 0 -- -- 35
2019-05-30 22:00:00 23.7 10 Nordeste 19 Nordeste 0 -- -- 28
2019-05-30 21:00:00 26.8 9 Nordeste 18 Nordeste 0 -- -- 23
2019-05-30 20:00:00 28 12 Nordeste 25 Nordeste 0 -- -- 21
2019-05-30 19:00:00 28.7 10 Norte 26 Nordeste 0 -- -- 20
2019-05-30 18:00:00 28.8 12 Nordeste 28 Nordeste 0 -- -- 19
2019-05-30 17:00:00 28.7 10 Este 24 Nordeste 0 -- -- 19
2019-05-30 16:00:00 28.1 10 Este 24 Nordeste 0 -- -- 18
2019-05-30 15:00:00 27 9 Norte 19 Norte 0 -- -- 21
2019-05-30 14:00:00 25.5 9 Nordeste 23 Este 0 -- -- 26
2019-05-30 13:00:00 23.4 10 Nordeste 19 Nordeste 0 -- -- 32
2019-05-30 12:00:00 21.5 9 Este 17 Este 0 -- -- 36
2019-05-30 11:00:00 19.2 6 Este 14 Este 0 -- -- 41
2019-05-30 10:00:00 16.2 5 Sudeste 10 Sudeste 0 -- -- 52
2019-05-30 09:00:00 12.6 2 Norte 7 Este 0 -- -- 60
2019-05-30 08:00:00 7.9 3 Sudeste 10 Sur 0 -- -- 71
2019-05-30 07:00:00 5.9 4 Sur 13 Sudoeste 0 -- -- 80
2019-05-30 06:00:00 7 0 Calma 6 Sudeste 0 -- -- 76
2019-05-30 05:00:00 7.7 3 Sudeste 8 Sudeste 0 -- -- 76
2019-05-30 04:00:00 9.1 0 Calma 5 Oeste 0 -- -- 73
2019-05-30 03:00:00 11 3 Este 7 Este 0 -- -- 68
2019-05-30 02:00:00 12.1 5 Este 8 Este 0 -- -- 65
2019-05-30 01:00:00 13.2 4 Nordeste 10 Nordeste 0 -- -- 62
2019-05-30 00:00:00 14.6 8 Nordeste 18 Este 0 -- -- 57
2019-05-29 23:00:00 16.3 12 Nordeste 20 Nordeste 0 -- -- 50
2019-05-29 22:00:00 17.5 6 Este 21 Nordeste 0 -- -- 47
2019-05-29 21:00:00 19.8 12 Nordeste 26 Nordeste 0 -- -- 40
2019-05-29 20:00:00 21.3 17 Nordeste 31 Nordeste 0 -- -- 36
2019-05-29 19:00:00 22.4 16 Nordeste 32 Este 0 -- -- 33
2019-05-29 18:00:00 22.7 18 Nordeste 32 Este 0 -- -- 34
2019-05-29 17:00:00 22.5 14 Este 32 Nordeste 0 -- -- 35
2019-05-29 16:00:00 21.7 14 Este 33 Nordeste 0 -- -- 36
2019-05-29 15:00:00 20.8 14 Nordeste 33 Este 0 -- -- 38
2019-05-29 14:00:00 19.9 16 Este 31 Este 0 -- -- 41
2019-05-29 13:00:00 18.1 16 Nordeste 32 Este 0 -- -- 43
2019-05-29 12:00:00 16.3 14 Nordeste 29 Este 0 -- -- 47
2019-05-29 11:00:00 14.3 12 Este 26 Este 0 -- -- 52
2019-05-29 10:00:00 13 12 Este 23 Este 0 -- -- 53
2019-05-29 09:00:00 10.5 3 Este 10 Este 0 -- -- 61
2019-05-29 08:00:00 7.8 4 Nordeste 11 Norte 0 -- -- 71
2019-05-29 07:00:00 6.4 5 Norte 8 Norte 0 -- -- 76
2019-05-29 06:00:00 6.7 3 Norte 9 Nordeste 0 -- -- 73
2019-05-29 05:00:00 7.3 3 Nordeste 15 Nordeste 0 -- -- 71
2019-05-29 04:00:00 7.8 5 Nordeste 13 Nordeste 0 -- -- 68
2019-05-29 03:00:00 8.2 6 Nordeste 19 Nordeste 0 -- -- 67
2019-05-29 02:00:00 9.6 9 Nordeste 22 Nordeste 0 -- -- 62
2019-05-29 01:00:00 10.7 13 Nordeste 21 Nordeste 0 -- -- 57
2019-05-29 00:00:00 12.4 9 Nordeste 18 Nordeste 0 -- -- 47
2019-05-28 23:00:00 13.8 12 Nordeste 30 Este 0 -- -- 48
2019-05-28 22:00:00 15.8 13 Nordeste 33 Este 0 -- -- 46
2019-05-28 21:00:00 20 8 Este 18 Nordeste 0 -- -- 34
2019-05-28 20:00:00 21.3 8 Nordeste 26 Nordeste 0 -- -- 32
2019-05-28 19:00:00 21.9 12 Nordeste 28 Nordeste 0 -- -- 32
2019-05-28 18:00:00 21.9 16 Norte 29 Este 0 -- -- 30
2019-05-28 17:00:00 22.3 15 Norte 34 Norte 0 -- -- 29
2019-05-28 16:00:00 21.8 10 Nordeste 29 Norte 0 -- -- 28
2019-05-28 15:00:00 20.9 10 Nordeste 26 Norte 0 -- -- 29
2019-05-28 14:00:00 19.2 13 Nordeste 24 Nordeste 0 -- -- 32
2019-05-28 13:00:00 17.8 12 Nordeste 23 Nordeste 0 -- -- 35
2019-05-28 12:00:00 16 14 Nordeste 26 Nordeste 0 -- -- 42
2019-05-28 11:00:00 14.2 12 Nordeste 24 Nordeste 0 -- -- 48
2019-05-28 10:00:00 12 12 Nordeste 22 Este 0 -- -- 55
2019-05-28 09:00:00 10.2 10 Nordeste 18 Nordeste 0 -- -- 65
2019-05-28 08:00:00 8.2 4 Nordeste 9 Nordeste 0 -- -- 78
2019-05-28 07:00:00 7.6 4 Nordeste 13 Nordeste 0 -- -- 80
2019-05-28 06:00:00 8.6 6 Norte 11 Nordeste 0 -- -- 78
2019-05-28 05:00:00 9.1 6 Nordeste 10 Nordeste 0 -- -- 76
2019-05-28 04:00:00 10.3 5 Nordeste 11 Nordeste 0 -- -- 71
2019-05-28 03:00:00 11.3 6 Nordeste 14 Nordeste 0 -- -- 65
2019-05-28 02:00:00 12.3 8 Nordeste 21 Este 0 -- -- 68
2019-05-28 01:00:00 13.5 11 Nordeste 25 Norte 0 -- -- 66
2019-05-28 00:00:00 15.4 14 Nordeste 27 Nordeste 0 -- -- 62
2019-05-27 23:00:00 17.9 15 Nordeste 25 Norte 0 -- -- 52
2019-05-27 22:00:00 20.6 7 Nordeste 14 Nordeste 0 -- -- 40
2019-05-27 21:00:00 23 7 Norte 22 Noroeste 0 -- -- 34
2019-05-27 20:00:00 24.2 16 Noroeste 28 Noroeste 0 -- -- 32
2019-05-27 19:00:00 24.8 13 Norte 29 Norte 0 -- -- 32
2019-05-27 18:00:00 25.6 13 Norte 25 Noroeste 0 -- -- 31
2019-05-27 17:00:00 25 13 Noroeste 29 Norte 0 -- -- 33
2019-05-27 16:00:00 24.5 12 Noroeste 27 Norte 0 -- -- 34
2019-05-27 15:00:00 24.1 15 Norte 29 Norte 0 -- -- 35
2019-05-27 14:00:00 23.3 9 Noroeste 23 Norte 0 -- -- 36
2019-05-27 13:00:00 22.1 10 Noroeste 22 Norte 0 -- -- 38
2019-05-27 12:00:00 20.6 8 Norte 15 Noroeste 0 -- -- 43
2019-05-27 11:00:00 18.9 6 Este 15 Este 0 -- -- 46
2019-05-27 10:00:00 17.4 9 Este 15 Este 0 -- -- 49
2019-05-27 09:00:00 14.8 8 Nordeste 14 Nordeste 0 -- -- 55
2019-05-27 08:00:00 11 3 Nordeste 12 Norte 0 -- -- 73
2019-05-27 07:00:00 9.7 7 Norte 11 Nordeste 0 -- -- 78
2019-05-27 06:00:00 10.2 3 Norte 8 Sur 0 -- -- 78
2019-05-27 05:00:00 11.1 0 Calma 5 Sudoeste 0 -- -- 73
2019-05-27 04:00:00 12 2 Sudoeste 7 Sur -- -- -- 71
2019-05-27 03:00:00 13.4 0 Calma 7 Nordeste 0 -- -- 65
2019-05-27 02:00:00 14.2 3 Nordeste 9 Este 0 -- -- 65
2019-05-27 01:00:00 14.8 4 Nordeste 9 Este 0 -- -- 63
2019-05-27 00:00:00 15.7 6 Este 11 Nordeste 0 -- -- 59
2019-05-26 23:00:00 16.8 4 Este 12 Este 0 -- -- 54
2019-05-26 22:00:00 19.4 6 Este 12 Este 0 -- -- 47
2019-05-26 21:00:00 22.7 8 Nordeste 20 Nordeste 0 -- -- 38
2019-05-26 20:00:00 23.7 11 Norte 27 Norte 0 -- -- 35
2019-05-26 19:00:00 24.3 14 Nordeste 31 Este 0 -- -- 34
2019-05-26 18:00:00 24.5 12 Nordeste 30 Nordeste 0 -- -- 34
2019-05-26 17:00:00 23.6 12 Nordeste 32 Norte 0 -- -- 36
2019-05-26 16:00:00 22.9 15 Nordeste 27 Nordeste 0 -- -- 37
2019-05-26 15:00:00 21.9 15 Norte 29 Norte 0 -- -- 38
2019-05-26 14:00:00 20.5 12 Nordeste 26 Nordeste 0 -- -- 43
2019-05-26 13:00:00 19.2 12 Norte 25 Este 0 -- -- 45
2019-05-26 12:00:00 16.9 12 Nordeste 21 Nordeste 0 -- -- 52
2019-05-26 11:00:00 14.9 11 Nordeste 20 Nordeste 0 -- -- 58
2019-05-26 10:00:00 12.4 6 Este 16 Norte 0 -- -- 65
2019-05-26 09:00:00 10.7 5 Este 12 Este 0 -- -- 70
2019-05-26 08:00:00 8.8 0 Calma 8 Nordeste 0 -- -- 76
2019-05-26 07:00:00 6.7 5 Norte 12 Norte 0 -- -- 84
2019-05-26 06:00:00 7 6 Norte 12 Nordeste 0 -- -- 83
2019-05-26 05:00:00 8.2 6 Norte 13 Nordeste 0 -- -- 78
2019-05-26 04:00:00 8.7 5 Norte 11 Este 0 -- -- 75
2019-05-26 03:00:00 9.1 5 Nordeste 12 Nordeste 0 -- -- 73
2019-05-26 02:00:00 10 6 Nordeste 15 Nordeste 0 -- -- 69
2019-05-26 01:00:00 11.2 6 Nordeste 16 Nordeste 0 -- -- 65
2019-05-26 00:00:00 12.6 6 Nordeste 10 Nordeste 0 -- -- 60
2019-05-25 23:00:00 13.9 7 Nordeste 20 Nordeste 0 -- -- 54
2019-05-25 22:00:00 15.6 7 Nordeste 19 Nordeste 0 -- -- 49
2019-05-25 21:00:00 18.3 13 Nordeste 32 Nordeste 0 -- -- 41
2019-05-25 20:00:00 19.7 14 Nordeste 35 Este 0 -- -- 35
2019-05-25 19:00:00 20.5 18 Nordeste 31 Nordeste 0 -- -- 35
2019-05-25 18:00:00 21.2 13 Nordeste 32 Nordeste 0 -- -- 33
2019-05-25 17:00:00 20.9 14 Nordeste 30 Este 0 -- -- 35
2019-05-25 16:00:00 19.6 16 Nordeste 31 Norte 0 -- -- 37
2019-05-25 15:00:00 18.6 14 Nordeste 31 Nordeste 0 -- -- 42
2019-05-25 14:00:00 17.1 17 Nordeste 34 Nordeste 0 -- -- 45
2019-05-25 13:00:00 15.4 15 Nordeste 35 Este 0 -- -- 51
2019-05-25 12:00:00 14.2 17 Nordeste 35 Este 0 -- -- 53
2019-05-25 11:00:00 13.8 20 Nordeste 38 Nordeste 0 -- -- 57
2019-05-25 10:00:00 12.5 18 Nordeste 34 Nordeste 0 -- -- 63
2019-05-25 09:00:00 10.6 11 Nordeste 18 Nordeste 0 -- -- 73
2019-05-25 08:00:00 8.3 6 Norte 10 Norte 0 -- -- 85
2019-05-25 07:00:00 5.8 4 Noroeste 5 Noroeste 0 -- -- 89
2019-05-25 06:00:00 6.6 2 Nordeste 7 Nordeste 0 -- -- 89
2019-05-25 05:00:00 6.6 3 Nordeste 8 Nordeste 0 -- -- 87
2019-05-25 04:00:00 7.1 0 Calma 9 Norte 0 -- -- 86
2019-05-25 03:00:00 7.9 3 Noroeste 13 Norte 0 -- -- 82
2019-05-25 02:00:00 9 8 Norte 15 Norte 0 -- -- 79
2019-05-25 01:00:00 9.8 7 Nordeste 17 Norte 0 -- -- 75
2019-05-25 00:00:00 10.7 7 Nordeste 21 Nordeste 0 -- -- 69